sensor_id;sensor_type;location;lat;lon;timestamp;P1;durP1;ratioP1;P2;durP2;ratioP2
13592;SDS011;6867;50.998;4.250;2024-02-16T00:00:57;3.60;;;2.47;;
13592;SDS011;6867;50.998;4.250;2024-02-16T00:03:25;3.95;;;2.40;;
13592;SDS011;6867;50.998;4.250;2024-02-16T00:05:51;3.35;;;2.67;;
13592;SDS011;6867;50.998;4.250;2024-02-16T00:08:18;4.57;;;2.40;;
13592;SDS011;6867;50.998;4.250;2024-02-16T00:10:45;3.10;;;1.95;;
13592;SDS011;6867;50.998;4.250;2024-02-16T00:13:12;3.03;;;2.00;;
13592;SDS011;6867;50.998;4.250;2024-02-16T00:15:40;3.50;;;2.20;;
13592;SDS011;6867;50.998;4.250;2024-02-16T00:18:07;2.80;;;1.80;;
13592;SDS011;6867;50.998;4.250;2024-02-16T00:20:33;2.15;;;1.95;;
13592;SDS011;6867;50.998;4.250;2024-02-16T00:23:00;2.90;;;2.28;;
13592;SDS011;6867;50.998;4.250;2024-02-16T00:25:27;2.58;;;2.13;;
13592;SDS011;6867;50.998;4.250;2024-02-16T00:27:53;3.65;;;2.50;;
13592;SDS011;6867;50.998;4.250;2024-02-16T00:30:22;4.38;;;2.22;;
13592;SDS011;6867;50.998;4.250;2024-02-16T00:32:50;4.60;;;2.30;;
13592;SDS011;6867;50.998;4.250;2024-02-16T00:35:17;4.18;;;2.50;;
13592;SDS011;6867;50.998;4.250;2024-02-16T00:37:44;3.35;;;2.60;;
13592;SDS011;6867;50.998;4.250;2024-02-16T00:40:12;3.75;;;2.60;;
13592;SDS011;6867;50.998;4.250;2024-02-16T00:42:38;3.95;;;2.20;;
13592;SDS011;6867;50.998;4.250;2024-02-16T00:45:06;3.33;;;2.35;;
13592;SDS011;6867;50.998;4.250;2024-02-16T00:47:33;4.05;;;2.15;;
13592;SDS011;6867;50.998;4.250;2024-02-16T00:50:01;3.95;;;2.13;;
13592;SDS011;6867;50.998;4.250;2024-02-16T00:52:30;3.15;;;2.15;;
13592;SDS011;6867;50.998;4.250;2024-02-16T00:54:56;2.85;;;2.38;;
13592;SDS011;6867;50.998;4.250;2024-02-16T00:57:23;3.10;;;2.30;;
13592;SDS011;6867;50.998;4.250;2024-02-16T00:59:50;2.70;;;2.20;;
13592;SDS011;6867;50.998;4.250;2024-02-16T01:02:17;3.00;;;2.13;;
13592;SDS011;6867;50.998;4.250;2024-02-16T01:04:43;3.72;;;2.38;;
13592;SDS011;6867;50.998;4.250;2024-02-16T01:07:13;4.27;;;2.63;;
13592;SDS011;6867;50.998;4.250;2024-02-16T01:09:40;2.75;;;2.30;;
13592;SDS011;6867;50.998;4.250;2024-02-16T01:12:06;3.10;;;2.30;;
13592;SDS011;6867;50.998;4.250;2024-02-16T01:14:33;3.30;;;2.22;;
13592;SDS011;6867;50.998;4.250;2024-02-16T01:16:59;4.70;;;2.30;;
13592;SDS011;6867;50.998;4.250;2024-02-16T01:19:26;3.28;;;2.33;;
13592;SDS011;6867;50.998;4.250;2024-02-16T01:21:52;3.75;;;2.13;;
13592;SDS011;6867;50.998;4.250;2024-02-16T01:24:24;6.55;;;2.53;;
13592;SDS011;6867;50.998;4.250;2024-02-16T01:26:51;3.67;;;2.20;;
13592;SDS011;6867;50.998;4.250;2024-02-16T01:29:17;2.80;;;2.08;;
13592;SDS011;6867;50.998;4.250;2024-02-16T01:31:43;4.40;;;2.53;;
13592;SDS011;6867;50.998;4.250;2024-02-16T01:34:10;4.82;;;2.70;;
13592;SDS011;6867;50.998;4.250;2024-02-16T01:36:37;3.67;;;2.38;;
13592;SDS011;6867;50.998;4.250;2024-02-16T01:39:03;3.75;;;2.30;;
13592;SDS011;6867;50.998;4.250;2024-02-16T01:41:33;4.13;;;2.67;;
13592;SDS011;6867;50.998;4.250;2024-02-16T01:44:00;3.63;;;2.53;;
13592;SDS011;6867;50.998;4.250;2024-02-16T01:46:26;6.13;;;2.67;;
13592;SDS011;6867;50.998;4.250;2024-02-16T01:48:53;3.42;;;2.47;;
13592;SDS011;6867;50.998;4.250;2024-02-16T01:51:20;3.33;;;2.40;;
13592;SDS011;6867;50.998;4.250;2024-02-16T01:53:47;2.90;;;2.20;;
13592;SDS011;6867;50.998;4.250;2024-02-16T01:56:14;3.53;;;1.95;;
13592;SDS011;6867;50.998;4.250;2024-02-16T01:58:42;3.22;;;2.30;;
13592;SDS011;6867;50.998;4.250;2024-02-16T02:01:08;3.97;;;2.30;;
13592;SDS011;6867;50.998;4.250;2024-02-16T02:03:35;4.38;;;2.38;;
13592;SDS011;6867;50.998;4.250;2024-02-16T02:06:02;3.28;;;2.40;;
13592;SDS011;6867;50.998;4.250;2024-02-16T02:08:28;5.50;;;2.30;;
13592;SDS011;6867;50.998;4.250;2024-02-16T02:10:55;4.60;;;2.50;;
13592;SDS011;6867;50.998;4.250;2024-02-16T02:13:21;5.80;;;2.55;;
13592;SDS011;6867;50.998;4.250;2024-02-16T02:15:49;3.72;;;2.20;;
13592;SDS011;6867;50.998;4.250;2024-02-16T02:18:16;3.53;;;1.98;;
13592;SDS011;6867;50.998;4.250;2024-02-16T02:20:43;3.53;;;2.27;;
13592;SDS011;6867;50.998;4.250;2024-02-16T02:23:10;4.53;;;2.58;;
13592;SDS011;6867;50.998;4.250;2024-02-16T02:25:37;3.90;;;2.40;;
13592;SDS011;6867;50.998;4.250;2024-02-16T02:28:05;4.35;;;2.55;;
13592;SDS011;6867;50.998;4.250;2024-02-16T02:30:31;4.07;;;2.42;;
13592;SDS011;6867;50.998;4.250;2024-02-16T02:32:58;4.85;;;2.58;;
13592;SDS011;6867;50.998;4.250;2024-02-16T02:35:24;2.88;;;2.20;;
13592;SDS011;6867;50.998;4.250;2024-02-16T02:37:51;5.07;;;2.05;;
13592;SDS011;6867;50.998;4.250;2024-02-16T02:40:19;4.95;;;2.28;;
13592;SDS011;6867;50.998;4.250;2024-02-16T02:42:45;4.88;;;2.58;;
13592;SDS011;6867;50.998;4.250;2024-02-16T02:45:12;4.85;;;2.65;;
13592;SDS011;6867;50.998;4.250;2024-02-16T02:47:39;4.18;;;2.75;;
13592;SDS011;6867;50.998;4.250;2024-02-16T02:50:06;6.17;;;2.23;;
13592;SDS011;6867;50.998;4.250;2024-02-16T02:52:33;4.65;;;2.60;;
13592;SDS011;6867;50.998;4.250;2024-02-16T02:55:00;4.38;;;2.70;;
13592;SDS011;6867;50.998;4.250;2024-02-16T02:57:28;5.20;;;2.60;;
13592;SDS011;6867;50.998;4.250;2024-02-16T02:59:55;3.17;;;2.50;;
13592;SDS011;6867;50.998;4.250;2024-02-16T03:02:31;5.25;;;2.60;;
13592;SDS011;6867;50.998;4.250;2024-02-16T03:04:57;5.35;;;2.88;;
13592;SDS011;6867;50.998;4.250;2024-02-16T03:07:25;3.75;;;2.50;;
13592;SDS011;6867;50.998;4.250;2024-02-16T03:09:51;5.00;;;2.88;;
13592;SDS011;6867;50.998;4.250;2024-02-16T03:12:18;3.88;;;2.60;;
13592;SDS011;6867;50.998;4.250;2024-02-16T03:14:46;3.53;;;2.50;;
13592;SDS011;6867;50.998;4.250;2024-02-16T03:17:12;5.43;;;3.00;;
13592;SDS011;6867;50.998;4.250;2024-02-16T03:19:39;3.03;;;2.47;;
13592;SDS011;6867;50.998;4.250;2024-02-16T03:22:05;4.15;;;3.17;;
13592;SDS011;6867;50.998;4.250;2024-02-16T03:24:32;3.40;;;2.67;;
13592;SDS011;6867;50.998;4.250;2024-02-16T03:26:58;4.55;;;2.75;;
13592;SDS011;6867;50.998;4.250;2024-02-16T03:29:25;4.75;;;3.22;;
13592;SDS011;6867;50.998;4.250;2024-02-16T03:31:53;5.50;;;2.90;;
13592;SDS011;6867;50.998;4.250;2024-02-16T03:34:20;5.82;;;2.95;;
13592;SDS011;6867;50.998;4.250;2024-02-16T03:36:47;4.45;;;2.67;;
13592;SDS011;6867;50.998;4.250;2024-02-16T03:39:13;6.68;;;3.05;;
13592;SDS011;6867;50.998;4.250;2024-02-16T03:41:45;6.43;;;2.83;;
13592;SDS011;6867;50.998;4.250;2024-02-16T03:44:13;4.93;;;2.83;;
13592;SDS011;6867;50.998;4.250;2024-02-16T03:46:40;7.10;;;3.60;;
13592;SDS011;6867;50.998;4.250;2024-02-16T03:49:07;5.85;;;3.20;;
13592;SDS011;6867;50.998;4.250;2024-02-16T03:51:35;4.95;;;2.80;;
13592;SDS011;6867;50.998;4.250;2024-02-16T03:54:02;5.38;;;3.13;;
13592;SDS011;6867;50.998;4.250;2024-02-16T03:56:29;5.70;;;3.03;;
13592;SDS011;6867;50.998;4.250;2024-02-16T03:58:55;5.20;;;3.25;;
13592;SDS011;6867;50.998;4.250;2024-02-16T04:01:22;4.53;;;3.08;;
13592;SDS011;6867;50.998;4.250;2024-02-16T04:03:49;4.40;;;3.17;;
13592;SDS011;6867;50.998;4.250;2024-02-16T04:06:19;4.28;;;3.00;;
13592;SDS011;6867;50.998;4.250;2024-02-16T04:08:46;4.22;;;3.15;;
13592;SDS011;6867;50.998;4.250;2024-02-16T04:11:13;4.50;;;2.95;;
13592;SDS011;6867;50.998;4.250;2024-02-16T04:13:40;5.38;;;2.72;;
13592;SDS011;6867;50.998;4.250;2024-02-16T04:16:07;7.90;;;3.30;;
13592;SDS011;6867;50.998;4.250;2024-02-16T04:18:33;5.90;;;2.97;;
13592;SDS011;6867;50.998;4.250;2024-02-16T04:21:00;5.38;;;3.45;;
13592;SDS011;6867;50.998;4.250;2024-02-16T04:23:28;5.57;;;3.45;;
13592;SDS011;6867;50.998;4.250;2024-02-16T04:25:55;6.13;;;4.05;;
13592;SDS011;6867;50.998;4.250;2024-02-16T04:28:22;6.15;;;3.28;;
13592;SDS011;6867;50.998;4.250;2024-02-16T04:30:49;6.53;;;3.20;;
13592;SDS011;6867;50.998;4.250;2024-02-16T04:33:15;4.95;;;3.17;;
13592;SDS011;6867;50.998;4.250;2024-02-16T04:35:42;7.35;;;3.88;;
13592;SDS011;6867;50.998;4.250;2024-02-16T04:38:11;7.10;;;3.65;;
13592;SDS011;6867;50.998;4.250;2024-02-16T04:40:40;7.28;;;3.45;;
13592;SDS011;6867;50.998;4.250;2024-02-16T04:43:06;6.95;;;4.00;;
13592;SDS011;6867;50.998;4.250;2024-02-16T04:45:33;7.15;;;3.97;;
13592;SDS011;6867;50.998;4.250;2024-02-16T04:48:04;6.85;;;3.42;;
13592;SDS011;6867;50.998;4.250;2024-02-16T04:50:31;6.78;;;3.70;;
13592;SDS011;6867;50.998;4.250;2024-02-16T04:52:59;5.63;;;3.92;;
13592;SDS011;6867;50.998;4.250;2024-02-16T04:55:26;9.68;;;4.07;;
13592;SDS011;6867;50.998;4.250;2024-02-16T04:57:54;7.25;;;3.90;;
13592;SDS011;6867;50.998;4.250;2024-02-16T05:00:21;10.10;;;4.35;;
13592;SDS011;6867;50.998;4.250;2024-02-16T05:02:50;6.53;;;3.60;;
13592;SDS011;6867;50.998;4.250;2024-02-16T05:05:17;7.10;;;3.75;;
13592;SDS011;6867;50.998;4.250;2024-02-16T05:07:44;7.47;;;4.07;;
13592;SDS011;6867;50.998;4.250;2024-02-16T05:10:15;7.45;;;3.72;;
13592;SDS011;6867;50.998;4.250;2024-02-16T05:12:42;9.25;;;4.20;;
13592;SDS011;6867;50.998;4.250;2024-02-16T05:15:10;7.15;;;3.95;;
13592;SDS011;6867;50.998;4.250;2024-02-16T05:17:38;8.43;;;4.22;;
13592;SDS011;6867;50.998;4.250;2024-02-16T05:20:08;9.88;;;4.32;;
13592;SDS011;6867;50.998;4.250;2024-02-16T05:22:40;10.50;;;4.05;;
13592;SDS011;6867;50.998;4.250;2024-02-16T05:25:08;14.93;;;5.28;;
13592;SDS011;6867;50.998;4.250;2024-02-16T05:27:35;7.53;;;3.83;;
13592;SDS011;6867;50.998;4.250;2024-02-16T05:30:03;9.43;;;4.05;;
13592;SDS011;6867;50.998;4.250;2024-02-16T05:32:34;9.98;;;3.58;;
13592;SDS011;6867;50.998;4.250;2024-02-16T05:35:01;7.82;;;4.32;;
13592;SDS011;6867;50.998;4.250;2024-02-16T05:37:30;6.88;;;3.58;;
13592;SDS011;6867;50.998;4.250;2024-02-16T05:39:57;7.30;;;3.97;;
13592;SDS011;6867;50.998;4.250;2024-02-16T05:42:33;7.03;;;3.88;;
13592;SDS011;6867;50.998;4.250;2024-02-16T05:45:00;8.00;;;4.05;;
13592;SDS011;6867;50.998;4.250;2024-02-16T05:47:27;6.28;;;3.80;;
13592;SDS011;6867;50.998;4.250;2024-02-16T05:49:55;6.85;;;3.88;;
13592;SDS011;6867;50.998;4.250;2024-02-16T05:52:23;6.13;;;3.67;;
13592;SDS011;6867;50.998;4.250;2024-02-16T05:54:50;6.68;;;3.75;;
13592;SDS011;6867;50.998;4.250;2024-02-16T05:57:18;6.70;;;3.70;;
13592;SDS011;6867;50.998;4.250;2024-02-16T05:59:44;9.20;;;3.63;;
13592;SDS011;6867;50.998;4.250;2024-02-16T06:02:11;12.57;;;4.43;;
13592;SDS011;6867;50.998;4.250;2024-02-16T06:04:38;4.13;;;3.42;;
13592;SDS011;6867;50.998;4.250;2024-02-16T06:07:06;7.30;;;3.50;;
13592;SDS011;6867;50.998;4.250;2024-02-16T06:09:33;6.75;;;3.92;;
13592;SDS011;6867;50.998;4.250;2024-02-16T06:12:01;6.88;;;3.53;;
13592;SDS011;6867;50.998;4.250;2024-02-16T06:14:29;6.82;;;3.53;;
13592;SDS011;6867;50.998;4.250;2024-02-16T06:16:57;4.88;;;3.17;;
13592;SDS011;6867;50.998;4.250;2024-02-16T06:19:24;4.30;;;3.33;;
13592;SDS011;6867;50.998;4.250;2024-02-16T06:21:51;9.50;;;3.58;;
13592;SDS011;6867;50.998;4.250;2024-02-16T06:24:21;6.32;;;3.38;;
13592;SDS011;6867;50.998;4.250;2024-02-16T06:26:48;5.70;;;3.80;;
13592;SDS011;6867;50.998;4.250;2024-02-16T06:29:14;5.38;;;3.13;;
13592;SDS011;6867;50.998;4.250;2024-02-16T06:31:41;8.18;;;3.25;;
13592;SDS011;6867;50.998;4.250;2024-02-16T06:34:08;5.45;;;3.20;;
13592;SDS011;6867;50.998;4.250;2024-02-16T06:36:34;6.18;;;3.17;;
13592;SDS011;6867;50.998;4.250;2024-02-16T06:39:04;7.15;;;3.40;;
13592;SDS011;6867;50.998;4.250;2024-02-16T06:41:32;6.07;;;3.10;;
13592;SDS011;6867;50.998;4.250;2024-02-16T06:43:59;5.43;;;3.65;;
13592;SDS011;6867;50.998;4.250;2024-02-16T06:46:26;6.53;;;3.40;;
13592;SDS011;6867;50.998;4.250;2024-02-16T06:48:54;7.03;;;3.35;;
13592;SDS011;6867;50.998;4.250;2024-02-16T06:51:21;5.80;;;3.10;;
13592;SDS011;6867;50.998;4.250;2024-02-16T06:53:48;9.30;;;3.63;;
13592;SDS011;6867;50.998;4.250;2024-02-16T06:56:15;5.13;;;3.22;;
13592;SDS011;6867;50.998;4.250;2024-02-16T06:58:43;5.05;;;3.45;;
13592;SDS011;6867;50.998;4.250;2024-02-16T07:01:10;8.40;;;3.75;;
13592;SDS011;6867;50.998;4.250;2024-02-16T07:03:37;4.13;;;3.17;;
13592;SDS011;6867;50.998;4.250;2024-02-16T07:06:03;7.03;;;3.70;;
13592;SDS011;6867;50.998;4.250;2024-02-16T07:08:34;7.53;;;4.30;;
13592;SDS011;6867;50.998;4.250;2024-02-16T07:11:01;26.02;;;15.20;;
13592;SDS011;6867;50.998;4.250;2024-02-16T07:13:28;11.00;;;6.32;;
13592;SDS011;6867;50.998;4.250;2024-02-16T07:15:56;8.80;;;3.97;;
13592;SDS011;6867;50.998;4.250;2024-02-16T07:18:23;5.57;;;4.30;;
13592;SDS011;6867;50.998;4.250;2024-02-16T07:20:50;7.55;;;4.22;;
13592;SDS011;6867;50.998;4.250;2024-02-16T07:23:16;5.13;;;3.65;;
13592;SDS011;6867;50.998;4.250;2024-02-16T07:25:43;6.95;;;3.65;;
13592;SDS011;6867;50.998;4.250;2024-02-16T07:28:11;4.72;;;3.60;;
13592;SDS011;6867;50.998;4.250;2024-02-16T07:30:37;6.18;;;3.60;;
13592;SDS011;6867;50.998;4.250;2024-02-16T07:33:05;5.50;;;3.97;;
13592;SDS011;6867;50.998;4.250;2024-02-16T07:35:32;7.18;;;4.03;;
13592;SDS011;6867;50.998;4.250;2024-02-16T07:38:00;5.15;;;3.83;;
13592;SDS011;6867;50.998;4.250;2024-02-16T07:40:27;15.50;;;8.48;;
13592;SDS011;6867;50.998;4.250;2024-02-16T07:42:53;15.27;;;8.02;;
13592;SDS011;6867;50.998;4.250;2024-02-16T07:45:20;5.38;;;4.20;;
13592;SDS011;6867;50.998;4.250;2024-02-16T07:47:47;7.72;;;4.57;;
13592;SDS011;6867;50.998;4.250;2024-02-16T07:50:17;7.75;;;4.72;;
13592;SDS011;6867;50.998;4.250;2024-02-16T07:52:45;7.72;;;4.00;;
13592;SDS011;6867;50.998;4.250;2024-02-16T07:55:12;8.63;;;4.25;;
13592;SDS011;6867;50.998;4.250;2024-02-16T07:57:39;8.90;;;4.30;;
13592;SDS011;6867;50.998;4.250;2024-02-16T08:00:06;6.88;;;4.00;;
13592;SDS011;6867;50.998;4.250;2024-02-16T08:02:32;5.72;;;3.50;;
13592;SDS011;6867;50.998;4.250;2024-02-16T08:04:59;4.25;;;3.47;;
13592;SDS011;6867;50.998;4.250;2024-02-16T08:07:27;5.75;;;3.60;;
13592;SDS011;6867;50.998;4.250;2024-02-16T08:09:53;7.15;;;3.90;;
13592;SDS011;6867;50.998;4.250;2024-02-16T08:12:20;5.43;;;3.72;;
13592;SDS011;6867;50.998;4.250;2024-02-16T08:14:47;7.20;;;3.70;;
13592;SDS011;6867;50.998;4.250;2024-02-16T08:17:14;7.25;;;3.75;;
13592;SDS011;6867;50.998;4.250;2024-02-16T08:19:43;5.43;;;3.28;;
13592;SDS011;6867;50.998;4.250;2024-02-16T08:22:11;4.75;;;3.38;;
13592;SDS011;6867;50.998;4.250;2024-02-16T08:24:39;5.50;;;3.13;;
13592;SDS011;6867;50.998;4.250;2024-02-16T08:27:05;8.38;;;3.45;;
13592;SDS011;6867;50.998;4.250;2024-02-16T08:29:32;5.82;;;3.15;;
13592;SDS011;6867;50.998;4.250;2024-02-16T08:32:00;7.07;;;3.95;;
13592;SDS011;6867;50.998;4.250;2024-02-16T08:34:28;7.70;;;4.10;;
13592;SDS011;6867;50.998;4.250;2024-02-16T08:36:55;8.55;;;3.58;;
13592;SDS011;6867;50.998;4.250;2024-02-16T08:39:22;5.82;;;3.72;;
13592;SDS011;6867;50.998;4.250;2024-02-16T08:41:51;5.65;;;3.80;;
13592;SDS011;6867;50.998;4.250;2024-02-16T08:44:18;6.78;;;3.40;;
13592;SDS011;6867;50.998;4.250;2024-02-16T08:46:44;9.32;;;3.50;;
13592;SDS011;6867;50.998;4.250;2024-02-16T08:49:13;6.45;;;3.17;;
13592;SDS011;6867;50.998;4.250;2024-02-16T08:51:40;6.65;;;3.30;;
13592;SDS011;6867;50.998;4.250;2024-02-16T08:54:07;8.23;;;3.47;;
13592;SDS011;6867;50.998;4.250;2024-02-16T08:56:34;7.72;;;3.45;;
13592;SDS011;6867;50.998;4.250;2024-02-16T08:59:02;10.02;;;4.00;;
13592;SDS011;6867;50.998;4.250;2024-02-16T09:01:31;7.40;;;4.22;;
13592;SDS011;6867;50.998;4.250;2024-02-16T09:03:58;7.10;;;3.65;;
13592;SDS011;6867;50.998;4.250;2024-02-16T09:06:25;9.68;;;3.65;;
13592;SDS011;6867;50.998;4.250;2024-02-16T09:08:52;9.68;;;4.25;;
13592;SDS011;6867;50.998;4.250;2024-02-16T09:11:19;5.03;;;3.90;;
13592;SDS011;6867;50.998;4.250;2024-02-16T09:13:45;6.70;;;3.65;;
13592;SDS011;6867;50.998;4.250;2024-02-16T09:16:14;5.57;;;3.58;;
13592;SDS011;6867;50.998;4.250;2024-02-16T09:18:40;6.68;;;4.07;;
13592;SDS011;6867;50.998;4.250;2024-02-16T09:21:07;8.60;;;3.58;;
13592;SDS011;6867;50.998;4.250;2024-02-16T09:23:34;7.53;;;3.58;;
13592;SDS011;6867;50.998;4.250;2024-02-16T09:26:02;8.18;;;3.90;;
13592;SDS011;6867;50.998;4.250;2024-02-16T09:28:29;8.32;;;3.70;;
13592;SDS011;6867;50.998;4.250;2024-02-16T09:30:56;17.63;;;9.90;;
13592;SDS011;6867;50.998;4.250;2024-02-16T09:33:24;12.82;;;7.70;;
13592;SDS011;6867;50.998;4.250;2024-02-16T09:35:52;15.82;;;7.97;;
13592;SDS011;6867;50.998;4.250;2024-02-16T09:38:18;7.05;;;5.28;;
13592;SDS011;6867;50.998;4.250;2024-02-16T09:40:45;12.13;;;4.75;;
13592;SDS011;6867;50.998;4.250;2024-02-16T09:43:21;8.20;;;4.53;;
13592;SDS011;6867;50.998;4.250;2024-02-16T09:45:52;8.05;;;5.38;;
13592;SDS011;6867;50.998;4.250;2024-02-16T09:48:19;9.82;;;5.38;;
13592;SDS011;6867;50.998;4.250;2024-02-16T09:50:48;9.75;;;5.22;;
13592;SDS011;6867;50.998;4.250;2024-02-16T09:53:16;10.48;;;5.38;;
13592;SDS011;6867;50.998;4.250;2024-02-16T09:55:46;11.75;;;5.57;;
13592;SDS011;6867;50.998;4.250;2024-02-16T09:58:14;9.32;;;5.22;;
13592;SDS011;6867;50.998;4.250;2024-02-16T10:00:47;7.15;;;4.97;;
13592;SDS011;6867;50.998;4.250;2024-02-16T10:03:21;11.32;;;5.40;;
13592;SDS011;6867;50.998;4.250;2024-02-16T10:06:03;9.23;;;4.78;;
13592;SDS011;6867;50.998;4.250;2024-02-16T10:08:31;8.48;;;4.95;;
13592;SDS011;6867;50.998;4.250;2024-02-16T10:11:01;10.10;;;5.15;;
13592;SDS011;6867;50.998;4.250;2024-02-16T10:13:29;9.52;;;5.05;;
13592;SDS011;6867;50.998;4.250;2024-02-16T10:16:04;10.95;;;5.15;;
13592;SDS011;6867;50.998;4.250;2024-02-16T10:18:30;9.57;;;4.20;;
13592;SDS011;6867;50.998;4.250;2024-02-16T10:20:58;8.60;;;5.13;;
13592;SDS011;6867;50.998;4.250;2024-02-16T10:23:25;9.30;;;5.03;;
13592;SDS011;6867;50.998;4.250;2024-02-16T10:25:51;9.80;;;4.68;;
13592;SDS011;6867;50.998;4.250;2024-02-16T10:28:20;9.82;;;4.93;;
13592;SDS011;6867;50.998;4.250;2024-02-16T10:30:53;9.13;;;5.65;;
13592;SDS011;6867;50.998;4.250;2024-02-16T10:33:26;6.68;;;5.65;;
13592;SDS011;6867;50.998;4.250;2024-02-16T10:35:54;9.82;;;5.63;;
13592;SDS011;6867;50.998;4.250;2024-02-16T10:38:24;9.95;;;5.13;;
13592;SDS011;6867;50.998;4.250;2024-02-16T10:40:52;15.18;;;5.20;;
13592;SDS011;6867;50.998;4.250;2024-02-16T10:43:21;11.32;;;5.93;;
13592;SDS011;6867;50.998;4.250;2024-02-16T10:45:50;8.52;;;5.57;;
13592;SDS011;6867;50.998;4.250;2024-02-16T10:48:18;12.10;;;5.43;;
13592;SDS011;6867;50.998;4.250;2024-02-16T10:50:45;9.65;;;5.68;;
13592;SDS011;6867;50.998;4.250;2024-02-16T10:53:17;8.07;;;5.90;;
13592;SDS011;6867;50.998;4.250;2024-02-16T10:55:46;8.60;;;5.60;;
13592;SDS011;6867;50.998;4.250;2024-02-16T10:58:12;11.52;;;6.15;;
13592;SDS011;6867;50.998;4.250;2024-02-16T11:00:51;10.98;;;5.95;;
13592;SDS011;6867;50.998;4.250;2024-02-16T11:03:20;14.80;;;6.18;;
13592;SDS011;6867;50.998;4.250;2024-02-16T11:05:49;11.82;;;6.35;;
13592;SDS011;6867;50.998;4.250;2024-02-16T11:08:16;9.73;;;6.30;;
13592;SDS011;6867;50.998;4.250;2024-02-16T11:10:56;10.57;;;6.57;;
13592;SDS011;6867;50.998;4.250;2024-02-16T11:13:23;10.65;;;6.80;;
13592;SDS011;6867;50.998;4.250;2024-02-16T11:15:56;13.70;;;7.55;;
13592;SDS011;6867;50.998;4.250;2024-02-16T11:18:24;8.77;;;7.22;;
13592;SDS011;6867;50.998;4.250;2024-02-16T11:20:51;14.25;;;7.45;;
13592;SDS011;6867;50.998;4.250;2024-02-16T11:23:24;11.60;;;7.38;;
13592;SDS011;6867;50.998;4.250;2024-02-16T11:25:50;11.30;;;7.22;;
13592;SDS011;6867;50.998;4.250;2024-02-16T11:28:18;10.50;;;6.97;;
13592;SDS011;6867;50.998;4.250;2024-02-16T11:30:45;9.63;;;7.15;;
13592;SDS011;6867;50.998;4.250;2024-02-16T11:33:12;10.60;;;6.82;;
13592;SDS011;6867;50.998;4.250;2024-02-16T11:35:39;8.68;;;6.88;;
13592;SDS011;6867;50.998;4.250;2024-02-16T11:38:05;11.25;;;7.53;;
13592;SDS011;6867;50.998;4.250;2024-02-16T11:40:33;11.70;;;6.95;;
13592;SDS011;6867;50.998;4.250;2024-02-16T11:43:00;11.20;;;7.28;;
13592;SDS011;6867;50.998;4.250;2024-02-16T11:45:28;11.80;;;8.07;;
13592;SDS011;6867;50.998;4.250;2024-02-16T11:48:04;10.57;;;7.47;;
13592;SDS011;6867;50.998;4.250;2024-02-16T11:50:31;11.48;;;8.30;;
13592;SDS011;6867;50.998;4.250;2024-02-16T11:52:58;10.13;;;8.25;;
13592;SDS011;6867;50.998;4.250;2024-02-16T11:55:24;10.48;;;7.50;;
13592;SDS011;6867;50.998;4.250;2024-02-16T11:57:51;11.48;;;8.40;;
13592;SDS011;6867;50.998;4.250;2024-02-16T12:00:19;12.45;;;7.50;;
13592;SDS011;6867;50.998;4.250;2024-02-16T12:02:58;9.98;;;7.78;;
13592;SDS011;6867;50.998;4.250;2024-02-16T12:05:25;13.48;;;8.57;;
13592;SDS011;6867;50.998;4.250;2024-02-16T12:07:52;11.65;;;8.75;;
13592;SDS011;6867;50.998;4.250;2024-02-16T12:10:18;12.25;;;8.50;;
13592;SDS011;6867;50.998;4.250;2024-02-16T12:12:45;10.45;;;8.93;;
13592;SDS011;6867;50.998;4.250;2024-02-16T12:15:14;12.00;;;9.57;;
13592;SDS011;6867;50.998;4.250;2024-02-16T12:17:42;12.60;;;9.07;;
13592;SDS011;6867;50.998;4.250;2024-02-16T12:20:13;14.25;;;9.38;;
13592;SDS011;6867;50.998;4.250;2024-02-16T12:22:39;13.25;;;9.23;;
13592;SDS011;6867;50.998;4.250;2024-02-16T12:25:06;10.73;;;8.80;;
13592;SDS011;6867;50.998;4.250;2024-02-16T12:27:34;14.75;;;9.57;;
13592;SDS011;6867;50.998;4.250;2024-02-16T12:30:00;12.30;;;9.10;;
13592;SDS011;6867;50.998;4.250;2024-02-16T12:32:27;11.65;;;9.43;;
13592;SDS011;6867;50.998;4.250;2024-02-16T12:34:54;12.90;;;8.48;;
13592;SDS011;6867;50.998;4.250;2024-02-16T12:37:24;12.00;;;8.77;;
13592;SDS011;6867;50.998;4.250;2024-02-16T12:39:50;11.73;;;7.82;;
13592;SDS011;6867;50.998;4.250;2024-02-16T12:42:17;10.88;;;8.00;;
13592;SDS011;6867;50.998;4.250;2024-02-16T12:44:44;10.10;;;7.53;;
13592;SDS011;6867;50.998;4.250;2024-02-16T12:47:10;8.70;;;7.30;;
13592;SDS011;6867;50.998;4.250;2024-02-16T12:49:37;14.27;;;10.52;;
13592;SDS011;6867;50.998;4.250;2024-02-16T12:52:04;12.95;;;9.35;;
13592;SDS011;6867;50.998;4.250;2024-02-16T12:54:32;13.23;;;9.75;;
13592;SDS011;6867;50.998;4.250;2024-02-16T12:56:59;14.00;;;10.07;;
13592;SDS011;6867;50.998;4.250;2024-02-16T12:59:26;14.18;;;10.38;;
13592;SDS011;6867;50.998;4.250;2024-02-16T13:01:53;14.10;;;10.63;;
13592;SDS011;6867;50.998;4.250;2024-02-16T13:04:19;13.52;;;10.40;;
13592;SDS011;6867;50.998;4.250;2024-02-16T13:06:48;11.07;;;9.38;;
13592;SDS011;6867;50.998;4.250;2024-02-16T13:09:14;13.13;;;10.30;;
13592;SDS011;6867;50.998;4.250;2024-02-16T13:11:42;13.73;;;10.88;;
13592;SDS011;6867;50.998;4.250;2024-02-16T13:14:09;13.82;;;11.10;;
13592;SDS011;6867;50.998;4.250;2024-02-16T13:16:35;14.63;;;11.05;;
13592;SDS011;6867;50.998;4.250;2024-02-16T13:19:02;13.43;;;10.63;;
13592;SDS011;6867;50.998;4.250;2024-02-16T13:21:29;13.18;;;10.63;;
13592;SDS011;6867;50.998;4.250;2024-02-16T13:23:56;15.38;;;10.30;;
13592;SDS011;6867;50.998;4.250;2024-02-16T13:26:22;12.82;;;10.25;;
13592;SDS011;6867;50.998;4.250;2024-02-16T13:28:50;13.18;;;9.88;;
13592;SDS011;6867;50.998;4.250;2024-02-16T13:31:17;14.45;;;10.88;;
13592;SDS011;6867;50.998;4.250;2024-02-16T13:33:44;17.98;;;12.70;;
13592;SDS011;6867;50.998;4.250;2024-02-16T13:36:10;14.98;;;12.00;;
13592;SDS011;6867;50.998;4.250;2024-02-16T13:38:37;15.10;;;12.85;;
13592;SDS011;6867;50.998;4.250;2024-02-16T13:41:04;19.88;;;14.05;;
13592;SDS011;6867;50.998;4.250;2024-02-16T13:43:31;18.75;;;13.98;;
13592;SDS011;6867;50.998;4.250;2024-02-16T13:45:59;17.40;;;14.77;;
13592;SDS011;6867;50.998;4.250;2024-02-16T13:48:25;14.70;;;11.77;;
13592;SDS011;6867;50.998;4.250;2024-02-16T13:50:53;12.73;;;10.57;;
13592;SDS011;6867;50.998;4.250;2024-02-16T13:53:21;10.48;;;9.38;;
13592;SDS011;6867;50.998;4.250;2024-02-16T13:55:48;12.20;;;9.55;;
13592;SDS011;6867;50.998;4.250;2024-02-16T13:58:15;8.75;;;7.68;;
13592;SDS011;6867;50.998;4.250;2024-02-16T14:00:42;8.55;;;6.90;;
13592;SDS011;6867;50.998;4.250;2024-02-16T14:03:10;7.82;;;6.43;;
13592;SDS011;6867;50.998;4.250;2024-02-16T14:05:37;8.52;;;6.78;;
13592;SDS011;6867;50.998;4.250;2024-02-16T14:08:05;6.50;;;5.72;;
13592;SDS011;6867;50.998;4.250;2024-02-16T14:10:35;7.30;;;6.47;;
13592;SDS011;6867;50.998;4.250;2024-02-16T14:13:02;6.97;;;6.28;;
13592;SDS011;6867;50.998;4.250;2024-02-16T14:15:29;6.90;;;6.30;;
13592;SDS011;6867;50.998;4.250;2024-02-16T14:17:56;6.63;;;5.70;;
13592;SDS011;6867;50.998;4.250;2024-02-16T14:20:24;6.53;;;5.90;;
13592;SDS011;6867;50.998;4.250;2024-02-16T14:22:51;6.43;;;5.55;;
13592;SDS011;6867;50.998;4.250;2024-02-16T14:25:18;5.75;;;4.63;;
13592;SDS011;6867;50.998;4.250;2024-02-16T14:27:45;5.43;;;4.90;;
13592;SDS011;6867;50.998;4.250;2024-02-16T14:30:12;5.15;;;4.75;;
13592;SDS011;6867;50.998;4.250;2024-02-16T14:32:39;5.85;;;4.60;;
13592;SDS011;6867;50.998;4.250;2024-02-16T14:35:06;7.13;;;4.70;;
13592;SDS011;6867;50.998;4.250;2024-02-16T14:37:35;6.95;;;4.75;;
13592;SDS011;6867;50.998;4.250;2024-02-16T14:40:02;5.22;;;4.68;;
13592;SDS011;6867;50.998;4.250;2024-02-16T14:42:30;4.80;;;4.30;;
13592;SDS011;6867;50.998;4.250;2024-02-16T14:44:57;6.88;;;5.00;;
13592;SDS011;6867;50.998;4.250;2024-02-16T14:47:23;3.72;;;3.42;;
13592;SDS011;6867;50.998;4.250;2024-02-16T14:49:50;4.88;;;3.95;;
13592;SDS011;6867;50.998;4.250;2024-02-16T14:52:17;4.47;;;4.07;;
13592;SDS011;6867;50.998;4.250;2024-02-16T14:54:45;5.43;;;4.20;;
13592;SDS011;6867;50.998;4.250;2024-02-16T14:57:12;6.35;;;3.75;;
13592;SDS011;6867;50.998;4.250;2024-02-16T14:59:39;6.75;;;3.92;;